Latest Coastal Weather Observations for Coffs Harbour

IDN60701

Issued at 2:55 am EST Wednesday 30 July 2014 (issued every 10 minutes, with the page automatically refreshed every 10 minutes)

About coastal observations | Map of coastal stations | Coastal observations for NSW | Marine services | Other Formats
Station Details ID: 059040 Name: COFFS HARBOUR MO Lat: -30.31 Lon: 153.12 Height: 5.0 m
Data from the previous 72 hours. | See also: Recent months at Coffs Harbour
Date/Time
EST
Temp

°C
Wind Pressure Rain
since 9am
mm
Weather Cloud Vis
km
Sea
Height
m
Swell
Dir
 
Speed
knots
Gust
knots
hPa Trend Height
m
Period
s
Dir
30/02:30am 6.5 NNW 5 6 1020.0 - 0.0 - - 10 - - - -
30/02:00am 7.1 NW 4 6 1020.1 - 0.0 - - 10 - - - -
30/01:30am 6.6 W 4 6 1020.2 - 0.0 - - 10 - - - -
30/01:00am 6.8 CALM 0 0 1020.1 - 0.0 - - 10 - - - -
30/12:30am 8.4 WSW 1 5 1020.1 - 0.0 - - 10 - - - -
30/12:00am 8.4 NW 0 0 1020.3 - 0.0 - - 10 - - - -
 
Date/Time
EST
Temp

°C
Wind Pressure Rain
since 9am
mm
Weather Cloud Vis
km
Sea
Height
m
Swell
Dir
 
Speed
knots
Gust
knots
hPa Trend Height
m
Period
s
Dir
29/11:30pm 8.7 N 4 4 1020.4 - 0.0 - - 10 - - - -
29/11:00pm 10.0 NNW 5 8 1020.4 - 0.0 - - 10 - - - -
29/10:30pm 9.5 N 8 8 1020.6 - 0.0 - - 10 - - - -
29/10:00pm 10.0 N 5 7 1020.7 - 0.0 - - 10 - - - -
29/09:30pm 12.3 NNW 7 10 1020.6 - 0.0 - - 10 - - - -
29/09:00pm 12.1 NNW 6 8 1020.6 - 0.0 - - 10 - - - -
29/08:30pm 10.4 NNW 5 6 1020.3 - 0.0 - - 10 - - - -
29/08:00pm 11.9 WNW 5 6 1019.9 - 0.0 - - 10 - - - -
29/07:30pm 11.4 NNW 8 9 1019.5 - 0.0 - - 10 - - - -
29/07:00pm 11.7 NNW 6 7 1019.5 - 0.0 - - 10 - - - -
29/06:30pm 12.8 N 6 8 1019.2 - 0.0 - - 10 - - - -
29/06:00pm 14.3 NNW 4 5 1019.4 - 0.0 - - 10 - - - -
29/05:30pm 15.5 N 6 8 1018.8 - 0.0 - - 10 - - - -
29/05:00pm 17.3 N 9 12 1018.6 - 0.0 - - 10 - - - -
29/04:30pm 17.8 NNE 10 16 1018.1 - 0.0 - - 10 - - - -
29/04:00pm 18.3 NE 11 15 1018.0 - 0.0 - - 10 - - - -
29/03:30pm 19.3 NE 10 14 1018.1 - 0.0 - - 10 - - - -
29/03:00pm 20.1 NE 10 14 1018.3 F 0.0 Haze Mostly clear 30 - - - -
29/02:30pm 20.2 NE 10 14 1018.3 - 0.0 - - 10 - - - -
29/02:00pm 19.6 NE 11 14 1018.5 - 0.0 - - 10 - - - -
29/01:30pm 20.1 ENE 9 11 1019.0 - 0.0 - - 10 - - - -
29/01:00pm 20.4 E 8 10 1019.5 - 0.0 - - 10 - - - -
29/12:30pm 20.2 E 7 9 1019.8 - 0.0 - - 10 - - - -
29/12:00pm 20.3 E 8 10 1020.3 - 0.0 - - 10 - - - -
29/11:30am 20.7 W 5 8 1020.9 - 0.0 - - 10 - - - -
29/11:00am 20.3 W 5 7 1021.5 - 0.0 - - 10 - - - -
29/10:30am 19.0 NW 7 9 1021.7 - 0.0 - - 10 - - - -
29/10:00am 18.3 WSW 6 8 1022.0 - 0.0 - - 10 - - - -
29/09:30am 16.5 W 5 7 1022.2 - 0.0 - - 10 - - - -
29/09:00am 14.4 W 3 5 1022.6 R 0.0 Haze Clear 30 - - - -
29/08:30am 11.7 W 3 4 1022.4 - 0.0 - - 10 - - - -
29/08:00am 9.0 CALM 0 3 1021.9 - 0.0 - - 10 - - - -
29/07:30am 6.7 WNW 3 4 1021.7 - 0.0 - - 10 - - - -
29/07:00am 4.3 NW 4 5 1021.2 - 0.0 - - 10 - - - -
29/06:30am 4.0 NW 4 5 1021.0 - 0.0 - - 10 - - - -
29/06:00am 4.0 NW 5 6 1020.7 - 0.0 - - 10 - - - -
29/05:30am 4.7 W 4 5 1020.3 - 0.0 - - 10 - - - -
29/05:00am 4.0 CALM 0 0 1019.9 - 0.0 - - 10 - - - -
29/04:30am 4.2 CALM 0 0 1019.6 - 0.0 - - 10 - - - -
29/04:00am 4.6 WNW 4 5 1019.5 - 0.0 - - 10 - - - -
29/03:30am 5.6 SW 3 5 1019.5 - 0.0 - - 10 - - - -
29/03:00am 5.5 NW 3 4 1019.4 - 0.0 - - 10 - - - -
29/02:30am 5.9 NNW 6 7 1019.6 - 0.0 - - 10 - - - -
29/02:00am 5.8 W 1 4 1019.8 - 0.0 - - 10 - - - -
29/01:30am 5.6 CALM 0 0 1019.8 - 0.0 - - 10 - - - -
29/01:00am 6.2 CALM 0 3 1019.8 - 0.0 - - 10 - - - -
29/12:49am 6.4 NW 3 4 1019.9 - 0.0 - - 10 - - - -
29/12:31am 6.9 NW 4 5 1020.0 - 0.0 - - 6 - - - -
29/12:30am 7.0 WNW 4 5 1020.0 - 0.0 - - 7 - - - -
29/12:00am 6.8 NNW 4 5 1020.3 - 0.0 - - 10 - - - -
 
Date/Time
EST
Temp

°C
Wind Pressure Rain
since 9am
mm
Weather Cloud Vis
km
Sea
Height
m
Swell
Dir
 
Speed
knots
Gust
knots
hPa Trend Height
m
Period
s
Dir
28/11:30pm 7.4 WNW 4 4 1020.2 - 0.0 - - 10 - - - -
28/11:00pm 7.4 WNW 4 5 1020.4 - 0.0 - - 10 - - - -
28/10:30pm 8.5 WNW 4 5 1020.4 - 0.0 - - 10 - - - -
28/10:00pm 8.3 W 5 6 1020.6 - 0.0 - - 10 - - - -
28/09:30pm 8.8 CALM 0 3 1020.6 - 0.0 - - 10 - - - -
28/09:00pm 10.0 NW 3 4 1020.6 - 0.0 - - 10 - - - -
28/08:30pm 10.5 N 5 5 1020.4 - 0.0 - - 10 - - - -
28/08:00pm 10.6 NW 5 5 1020.4 - 0.0 - - 10 - - - -
28/07:30pm 11.2 N 5 5 1020.3 - 0.0 - - 10 - - - -
28/07:00pm 11.3 NNW 3 5 1020.1 - 0.0 - - 10 - - - -
28/06:30pm 12.9 NW 4 5 1019.8 - 0.0 - - 10 - - - -
28/06:00pm 14.5 NNW 4 5 1019.6 - 0.0 - - 10 - - - -
28/05:30pm 14.9 WNW 5 6 1019.4 - 0.0 - - 10 - - - -
28/05:00pm 17.6 NE 7 9 1019.0 - 0.0 - - 10 - - - -
28/04:30pm 18.9 NE 10 14 1018.7 - 0.0 - - 10 - - - -
28/04:00pm 19.4 NE 9 14 1018.6 - 0.0 - - 10 - - - -
28/03:30pm 20.3 NE 10 14 1018.5 - 0.0 - - 10 - - - -
28/03:00pm 20.9 NE 10 15 1018.7 F 0.0 Haze Clear 30 - - - -
28/02:30pm 20.9 NE 11 15 1018.7 - 0.0 - - 10 - - - -
28/02:00pm 20.6 ENE 13 16 1018.9 - 0.0 - - 10 - - - -
28/01:30pm 21.1 ENE 10 14 1019.2 - 0.0 - - 10 - - - -
28/01:00pm 21.2 ENE 11 14 1019.4 - 0.0 - - 10 - - - -
28/12:30pm 21.0 N 5 10 1019.9 - 0.0 - - 10 - - - -
28/12:00pm 21.1 N 4 7 1021.1 - 0.0 - - 10 - - - -
28/11:30am 20.4 WNW 6 10 1021.5 - 0.0 - - 10 - - - -
28/11:00am 19.7 NW 8 11 1022.3 - 0.0 - - 10 - - - -
28/10:30am 19.2 N 8 10 1022.8 - 0.0 - - 10 - - - -
28/10:00am 18.7 NW 6 8 1023.5 - 0.0 - - 10 - - - -
28/09:30am 17.5 NW 6 8 1023.5 - 0.0 - - 10 - - - -
28/09:00am 17.0 NW 8 9 1023.1 F 0.2 Haze Clear 30 - - - -
28/08:30am 15.1 NW 7 10 1022.9 - 0.2 - - 10 - - - -
28/08:00am 13.2 NNW 7 8 1022.8 - 0.2 - - 10 - - - -
28/07:30am 10.6 NW 8 9 1022.8 - 0.2 - - 10 - - - -
28/07:00am 8.4 WNW 7 8 1022.6 - 0.2 - - 10 - - - -
28/06:30am 8.2 NW 8 9 1022.3 - 0.2 - - 10 - - - -
28/06:00am 8.1 NW 8 9 1022.2 - 0.2 - - 10 - - - -
28/05:30am 7.5 WNW 9 10 1022.0 - 0.2 - - 10 - - - -
28/05:00am 7.7 WNW 8 9 1021.8 - 0.2 - - 10 - - - -
28/04:30am 7.6 NW 6 7 1021.7 - 0.2 - - 10 - - - -
28/04:00am 7.2 WNW 7 7 1022.0 - 0.2 - - 10 - - - -
28/03:30am 7.4 NW 5 5 1021.9 - 0.2 - - 10 - - - -
28/03:00am 7.7 NW 5 5 1022.2 - 0.2 - - 10 - - - -
28/02:30am 8.0 NW 4 5 1022.3 - 0.2 - - 10 - - - -
28/02:00am 7.6 NW 5 5 1022.7 - 0.2 - - 10 - - - -
28/01:30am 7.5 NW 4 5 1022.9 - 0.2 - - 10 - - - -
28/01:00am 7.6 NW 2 4 1023.0 - 0.2 - - 10 - - - -
28/12:30am 7.8 NW 4 5 1023.2 - 0.2 - - 10 - - - -
28/12:00am 8.0 NNW 4 5 1023.5 - 0.2 - - 10 - - - -
 
Date/Time
EST
Temp

°C
Wind Pressure Rain
since 9am
mm
Weather Cloud Vis
km
Sea
Height
m
Swell
Dir
 
Speed
knots
Gust
knots
hPa Trend Height
m
Period
s
Dir
27/11:30pm 7.8 W 3 4 1023.7 - 0.2 - - 10 - - - -
27/11:00pm 8.0 NNW 4 4 1023.7 - 0.2 - - 10 - - - -
27/10:30pm 8.2 NW 2 4 1024.0 - 0.2 - - 10 - - - -
27/10:00pm 8.7 NW 2 4 1024.1 - 0.2 - - 10 - - - -
27/09:30pm 9.1 NW 3 4 1024.0 - 0.2 - - 10 - - - -
27/09:00pm 9.4 NW 4 5 1024.2 - 0.2 - - 10 - - - -
27/08:30pm 10.1 NW 4 5 1024.1 - 0.2 - - 10 - - - -
27/08:00pm 10.3 NNW 3 4 1023.9 - 0.2 - - 10 - - - -
27/07:30pm 10.7 NW 4 5 1023.5 - 0.2 - - 10 - - - -
27/07:00pm 11.1 NW 4 5 1023.3 - 0.2 - - 10 - - - -
27/06:30pm 12.5 NW 3 6 1023.1 - 0.2 - - 10 - - - -
27/06:00pm 12.9 SSW 2 5 1022.8 - 0.2 - - 10 - - - -
27/05:30pm 13.5 SW 6 9 1022.3 - 0.2 - - 10 - - - -
27/05:00pm 16.1 S 10 14 1022.1 - 0.2 - - 10 - - - -
27/04:30pm 16.9 S 11 15 1021.9 - 0.2 - - 10 - - - -
27/04:00pm 18.0 S 11 16 1021.8 - 0.2 - - 10 - - - -
27/03:30pm 18.4 SSE 10 14 1021.6 - 0.2 - - 10 - - - -
27/03:00pm 18.7 SSE 11 15 1021.6 S 0.2 Fine Mostly clear 40 - - - -
27/02:30pm 19.0 SSE 9 12 1021.5 - 0.2 - Mostly clear 10 - - - -
27/02:00pm 19.4 SSE 10 12 1021.6 - 0.2 - Mostly clear 10 - - - -
27/01:30pm 19.2 S 9 14 1021.8 - 0.2 - Mostly clear 10 - - - -
27/01:00pm 19.0 S 11 14 1022.0 - 0.2 - Mostly clear 10 - - - -
27/12:30pm 18.9 S 11 14 1022.4 - 0.2 - Mostly clear 10 - - - -
27/12:00pm 19.0 S 11 16 1022.9 R 0.2 Fine Mostly clear 40 - - - -
27/11:30am 18.6 SW 8 14 1023.4 - 0.2 - Mostly clear 10 - - - -
27/11:00am 18.7 SSW 7 11 1023.8 - 0.2 - Mostly clear 10 - - - -
27/10:30am 17.9 SSW 10 12 1024.1 - 0.0 - - 10 - - - -
27/10:00am 17.5 WSW 9 14 1024.3 - 0.0 - - 10 - - - -
27/09:30am 16.6 WSW 10 14 1024.4 - 0.0 - - 10 - - - -
27/09:00am 15.6 WSW 7 10 1024.2 R 0.4 Fine Clear 40 - - - -
27/08:30am 13.5 WSW 7 9 1023.8 - 0.4 - Mostly clear 10 - - - -
27/08:00am 11.3 SW 5 6 1023.8 - 0.4 - Mostly clear 10 - - - -
27/07:30am 8.9 NW 3 4 1023.8 - 0.4 - Mostly clear 10 - - - -
27/07:00am 7.4 WSW 5 7 1023.6 - 0.4 - Mostly clear 10 - - - -
27/06:30am 7.8 WSW 6 7 1023.3 - 0.4 - Mostly clear 10 - - - -
27/06:00am 8.1 W 5 6 1022.9 F 0.4 Fine Mostly clear 30 - - - -
27/05:30am 8.3 WSW 9 10 1022.6 - 0.4 - - 10 - - - -
27/05:00am 8.2 WSW 6 8 1022.3 - 0.4 - - 10 - - - -
27/04:30am 8.7 W 6 8 1022.1 - 0.4 - - 10 - - - -
27/04:00am 9.1 WNW 5 6 1022.2 - 0.4 - - 10 - - - -
27/03:43am 9.2 NW 6 7 1022.3 - 0.4 - - 8 - - - -
27/03:31am 9.1 NW 5 5 1022.2 - 0.4 - - 6 - - - -
27/03:30am 9.2 NW 5 5 1022.1 - 0.4 - - 7 - - - -
27/03:29am 9.4 NW 5 5 1022.1 - 0.4 - - 7 - - - -
27/03:00am 9.7 WSW 4 6 1022.3 - 0.4 - - 6 - - - -

Other Formats:

Comma delimited format used in spreadsheet applications
http://www.bom.gov.au/fwo/IDN60701/IDN60701.94791.axf

JavaScript Object Notation format (JSON) in row-major order
http://www.bom.gov.au/fwo/IDN60701/IDN60701.94791.json